sensor_id;sensor_type;location;lat;lon;timestamp;temperature;humidity
33109;HTU21D;19481;51.118;6.940;2023-04-22T00:03:21;9.54;62.86
33109;HTU21D;19481;51.118;6.940;2023-04-22T00:08:23;9.53;63.27
33109;HTU21D;19481;51.118;6.940;2023-04-22T00:13:27;9.52;63.57
33109;HTU21D;19481;51.118;6.940;2023-04-22T00:18:30;9.49;64.07
33109;HTU21D;19481;51.118;6.940;2023-04-22T00:23:31;9.49;64.28
33109;HTU21D;19481;51.118;6.940;2023-04-22T00:28:34;9.52;63.66
33109;HTU21D;19481;51.118;6.940;2023-04-22T00:33:37;9.51;63.79
33109;HTU21D;19481;51.118;6.940;2023-04-22T00:38:39;9.45;65.41
33109;HTU21D;19481;51.118;6.940;2023-04-22T00:43:41;9.40;65.75
33109;HTU21D;19481;51.118;6.940;2023-04-22T00:48:44;9.40;65.04
33109;HTU21D;19481;51.118;6.940;2023-04-22T00:53:46;9.37;64.76
33109;HTU21D;19481;51.118;6.940;2023-04-22T00:58:48;9.38;65.00
33109;HTU21D;19481;51.118;6.940;2023-04-22T01:03:51;9.40;64.45
33109;HTU21D;19481;51.118;6.940;2023-04-22T01:08:53;9.47;63.92
33109;HTU21D;19481;51.118;6.940;2023-04-22T01:13:56;9.47;63.31
33109;HTU21D;19481;51.118;6.940;2023-04-22T01:18:59;9.48;63.15
33109;HTU21D;19481;51.118;6.940;2023-04-22T01:24:03;9.56;63.05
33109;HTU21D;19481;51.118;6.940;2023-04-22T01:29:05;9.60;63.20
33109;HTU21D;19481;51.118;6.940;2023-04-22T01:34:06;9.61;63.44
33109;HTU21D;19481;51.118;6.940;2023-04-22T01:39:09;9.64;63.06
33109;HTU21D;19481;51.118;6.940;2023-04-22T01:44:12;9.63;63.34
33109;HTU21D;19481;51.118;6.940;2023-04-22T01:49:15;9.65;63.73
33109;HTU21D;19481;51.118;6.940;2023-04-22T01:54:17;9.68;63.67
33109;HTU21D;19481;51.118;6.940;2023-04-22T01:59:20;9.72;63.60
33109;HTU21D;19481;51.118;6.940;2023-04-22T02:04:22;9.72;63.63
33109;HTU21D;19481;51.118;6.940;2023-04-22T02:09:25;9.72;63.34
33109;HTU21D;19481;51.118;6.940;2023-04-22T02:14:26;9.70;63.50
33109;HTU21D;19481;51.118;6.940;2023-04-22T02:19:28;9.67;63.52
33109;HTU21D;19481;51.118;6.940;2023-04-22T02:24:31;9.65;63.54
33109;HTU21D;19481;51.118;6.940;2023-04-22T02:29:33;9.65;63.81
33109;HTU21D;19481;51.118;6.940;2023-04-22T02:34:34;9.65;64.21
33109;HTU21D;19481;51.118;6.940;2023-04-22T02:39:37;9.61;64.43
33109;HTU21D;19481;51.118;6.940;2023-04-22T02:44:39;9.57;64.57
33109;HTU21D;19481;51.118;6.940;2023-04-22T02:49:41;9.54;64.58
33109;HTU21D;19481;51.118;6.940;2023-04-22T02:54:44;9.51;64.53
33109;HTU21D;19481;51.118;6.940;2023-04-22T02:59:45;9.62;64.39
33109;HTU21D;19481;51.118;6.940;2023-04-22T03:04:47;9.81;64.40
33109;HTU21D;19481;51.118;6.940;2023-04-22T03:09:50;9.95;63.89
33109;HTU21D;19481;51.118;6.940;2023-04-22T03:14:52;10.08;63.59
33109;HTU21D;19481;51.118;6.940;2023-04-22T03:19:54;10.15;63.58
33109;HTU21D;19481;51.118;6.940;2023-04-22T03:24:57;10.28;63.45
33109;HTU21D;19481;51.118;6.940;2023-04-22T03:29:59;10.29;63.27
33109;HTU21D;19481;51.118;6.940;2023-04-22T03:35:00;10.34;63.10
33109;HTU21D;19481;51.118;6.940;2023-04-22T03:40:04;10.34;62.95
33109;HTU21D;19481;51.118;6.940;2023-04-22T03:45:07;10.42;63.15
33109;HTU21D;19481;51.118;6.940;2023-04-22T03:50:09;10.50;63.07
33109;HTU21D;19481;51.118;6.940;2023-04-22T03:55:12;10.53;62.73
33109;HTU21D;19481;51.118;6.940;2023-04-22T04:00:14;10.58;62.89
33109;HTU21D;19481;51.118;6.940;2023-04-22T04:05:16;10.63;62.63
33109;HTU21D;19481;51.118;6.940;2023-04-22T04:10:19;10.68;62.60
33109;HTU21D;19481;51.118;6.940;2023-04-22T04:15:21;10.77;63.08
33109;HTU21D;19481;51.118;6.940;2023-04-22T04:20:22;10.79;62.73
33109;HTU21D;19481;51.118;6.940;2023-04-22T04:25:25;10.84;62.64
33109;HTU21D;19481;51.118;6.940;2023-04-22T04:30:28;10.87;62.41
33109;HTU21D;19481;51.118;6.940;2023-04-22T04:35:30;10.88;62.57
33109;HTU21D;19481;51.118;6.940;2023-04-22T04:40:35;10.93;62.26
33109;HTU21D;19481;51.118;6.940;2023-04-22T04:45:36;10.96;62.27
33109;HTU21D;19481;51.118;6.940;2023-04-22T04:50:39;11.03;62.21
33109;HTU21D;19481;51.118;6.940;2023-04-22T04:55:43;11.14;61.79
33109;HTU21D;19481;51.118;6.940;2023-04-22T05:00:44;11.31;61.60
33109;HTU21D;19481;51.118;6.940;2023-04-22T05:05:46;11.37;61.25
33109;HTU21D;19481;51.118;6.940;2023-04-22T05:10:50;11.48;61.21
33109;HTU21D;19481;51.118;6.940;2023-04-22T05:15:51;11.60;60.85
33109;HTU21D;19481;51.118;6.940;2023-04-22T05:20:53;11.76;60.67
33109;HTU21D;19481;51.118;6.940;2023-04-22T05:25:56;11.90;60.27
33109;HTU21D;19481;51.118;6.940;2023-04-22T05:30:57;12.02;60.29
33109;HTU21D;19481;51.118;6.940;2023-04-22T05:35:59;12.20;60.07
33109;HTU21D;19481;51.118;6.940;2023-04-22T05:41:02;12.35;59.83
33109;HTU21D;19481;51.118;6.940;2023-04-22T05:46:04;12.53;59.50
33109;HTU21D;19481;51.118;6.940;2023-04-22T05:51:05;12.74;59.16
33109;HTU21D;19481;51.118;6.940;2023-04-22T05:56:08;12.88;59.14
33109;HTU21D;19481;51.118;6.940;2023-04-22T06:01:10;13.09;58.84
33109;HTU21D;19481;51.118;6.940;2023-04-22T06:06:11;13.30;58.62
33109;HTU21D;19481;51.118;6.940;2023-04-22T06:11:14;13.35;59.41
33109;HTU21D;19481;51.118;6.940;2023-04-22T06:16:16;13.36;59.06
33109;HTU21D;19481;51.118;6.940;2023-04-22T06:21:18;14.15;56.74
33109;HTU21D;19481;51.118;6.940;2023-04-22T06:26:21;13.70;58.60
33109;HTU21D;19481;51.118;6.940;2023-04-22T06:31:23;15.70;53.44
33109;HTU21D;19481;51.118;6.940;2023-04-22T06:36:24;17.53;50.95
33109;HTU21D;19481;51.118;6.940;2023-04-22T06:41:28;19.31;47.98
33109;HTU21D;19481;51.118;6.940;2023-04-22T06:46:29;19.17;53.20
33109;HTU21D;19481;51.118;6.940;2023-04-22T06:51:31;19.18;53.97
33109;HTU21D;19481;51.118;6.940;2023-04-22T06:56:34;20.31;51.76
33109;HTU21D;19481;51.118;6.940;2023-04-22T07:01:36;20.84;51.97
33109;HTU21D;19481;51.118;6.940;2023-04-22T07:06:38;18.95;57.86
33109;HTU21D;19481;51.118;6.940;2023-04-22T07:11:41;18.99;56.68
33109;HTU21D;19481;51.118;6.940;2023-04-22T07:16:42;17.37;58.57
33109;HTU21D;19481;51.118;6.940;2023-04-22T07:21:44;17.01;57.11
33109;HTU21D;19481;51.118;6.940;2023-04-22T07:26:47;20.13;48.35
33109;HTU21D;19481;51.118;6.940;2023-04-22T07:31:48;20.24;50.69
33109;HTU21D;19481;51.118;6.940;2023-04-22T07:36:50;20.65;50.20
33109;HTU21D;19481;51.118;6.940;2023-04-22T07:41:54;21.76;48.33
33109;HTU21D;19481;51.118;6.940;2023-04-22T07:46:56;22.38;48.55
33109;HTU21D;19481;51.118;6.940;2023-04-22T07:51:59;22.88;47.31
33109;HTU21D;19481;51.118;6.940;2023-04-22T07:57:02;23.30;45.70
33109;HTU21D;19481;51.118;6.940;2023-04-22T08:02:03;23.57;46.51
33109;HTU21D;19481;51.118;6.940;2023-04-22T08:07:08;23.84;46.50
33109;HTU21D;19481;51.118;6.940;2023-04-22T08:12:11;22.86;44.77
33109;HTU21D;19481;51.118;6.940;2023-04-22T08:17:13;22.65;48.05
33109;HTU21D;19481;51.118;6.940;2023-04-22T08:22:15;22.20;47.77
33109;HTU21D;19481;51.118;6.940;2023-04-22T08:27:20;22.13;43.95
33109;HTU21D;19481;51.118;6.940;2023-04-22T08:32:22;21.28;47.99
33109;HTU21D;19481;51.118;6.940;2023-04-22T08:37:25;21.99;45.55
33109;HTU21D;19481;51.118;6.940;2023-04-22T08:42:29;21.79;45.06
33109;HTU21D;19481;51.118;6.940;2023-04-22T08:47:31;20.74;46.14
33109;HTU21D;19481;51.118;6.940;2023-04-22T08:52:33;21.17;42.33
33109;HTU21D;19481;51.118;6.940;2023-04-22T08:57:37;21.50;40.69
33109;HTU21D;19481;51.118;6.940;2023-04-22T09:02:40;21.73;42.20
33109;HTU21D;19481;51.118;6.940;2023-04-22T09:07:44;22.07;41.32
33109;HTU21D;19481;51.118;6.940;2023-04-22T09:12:47;22.48;38.57
33109;HTU21D;19481;51.118;6.940;2023-04-22T09:17:51;23.00;38.61
33109;HTU21D;19481;51.118;6.940;2023-04-22T09:22:53;22.20;40.62
33109;HTU21D;19481;51.118;6.940;2023-04-22T09:27:57;23.02;32.32
33109;HTU21D;19481;51.118;6.940;2023-04-22T09:33:00;22.60;38.68
33109;HTU21D;19481;51.118;6.940;2023-04-22T09:38:04;22.41;38.16
33109;HTU21D;19481;51.118;6.940;2023-04-22T09:43:09;22.68;35.62
33109;HTU21D;19481;51.118;6.940;2023-04-22T09:48:12;23.12;36.81
33109;HTU21D;19481;51.118;6.940;2023-04-22T09:53:17;22.94;35.31
33109;HTU21D;19481;51.118;6.940;2023-04-22T09:58:20;23.23;35.29
33109;HTU21D;19481;51.118;6.940;2023-04-22T10:03:23;23.41;37.40
33109;HTU21D;19481;51.118;6.940;2023-04-22T10:08:25;23.58;37.01
33109;HTU21D;19481;51.118;6.940;2023-04-22T10:13:29;23.50;36.72
33109;HTU21D;19481;51.118;6.940;2023-04-22T10:18:32;23.69;36.45
33109;HTU21D;19481;51.118;6.940;2023-04-22T10:23:34;22.19;39.66
33109;HTU21D;19481;51.118;6.940;2023-04-22T10:28:42;22.38;33.90
33109;HTU21D;19481;51.118;6.940;2023-04-22T10:33:44;21.85;39.26
33109;HTU21D;19481;51.118;6.940;2023-04-22T10:39:14;21.99;34.33
33109;HTU21D;19481;51.118;6.940;2023-04-22T10:44:18;22.08;36.99
33109;HTU21D;19481;51.118;6.940;2023-04-22T10:49:22;21.88;39.05
33109;HTU21D;19481;51.118;6.940;2023-04-22T10:54:57;22.85;35.06
33109;HTU21D;19481;51.118;6.940;2023-04-22T11:05:31;23.60;36.05
33109;HTU21D;19481;51.118;6.940;2023-04-22T11:10:37;23.64;35.71
33109;HTU21D;19481;51.118;6.940;2023-04-22T11:15:44;23.86;33.31
33109;HTU21D;19481;51.118;6.940;2023-04-22T11:20:47;23.07;37.66
33109;HTU21D;19481;51.118;6.940;2023-04-22T11:25:53;22.66;36.66
33109;HTU21D;19481;51.118;6.940;2023-04-22T11:31:04;22.02;35.98
33109;HTU21D;19481;51.118;6.940;2023-04-22T11:36:09;22.73;36.72
33109;HTU21D;19481;51.118;6.940;2023-04-22T11:41:11;23.09;35.56
33109;HTU21D;19481;51.118;6.940;2023-04-22T11:46:14;23.20;34.57
33109;HTU21D;19481;51.118;6.940;2023-04-22T11:51:15;22.93;36.33
33109;HTU21D;19481;51.118;6.940;2023-04-22T11:56:17;22.67;37.40
33109;HTU21D;19481;51.118;6.940;2023-04-22T12:01:20;23.61;35.57
33109;HTU21D;19481;51.118;6.940;2023-04-22T12:06:23;23.40;36.58
33109;HTU21D;19481;51.118;6.940;2023-04-22T12:11:26;22.32;38.59
33109;HTU21D;19481;51.118;6.940;2023-04-22T12:16:38;23.20;34.46
33109;HTU21D;19481;51.118;6.940;2023-04-22T12:21:40;23.68;33.44
33109;HTU21D;19481;51.118;6.940;2023-04-22T12:26:43;24.01;35.11
33109;HTU21D;19481;51.118;6.940;2023-04-22T12:31:46;23.68;35.94
33109;HTU21D;19481;51.118;6.940;2023-04-22T12:36:48;23.27;36.84
33109;HTU21D;19481;51.118;6.940;2023-04-22T12:41:50;23.17;36.97
33109;HTU21D;19481;51.118;6.940;2023-04-22T12:46:53;23.35;36.11
33109;HTU21D;19481;51.118;6.940;2023-04-22T12:51:54;23.21;36.88
33109;HTU21D;19481;51.118;6.940;2023-04-22T12:56:56;22.99;35.80
33109;HTU21D;19481;51.118;6.940;2023-04-22T13:01:59;22.95;36.05
33109;HTU21D;19481;51.118;6.940;2023-04-22T13:07:01;22.77;37.55
33109;HTU21D;19481;51.118;6.940;2023-04-22T13:12:02;22.37;38.57
33109;HTU21D;19481;51.118;6.940;2023-04-22T13:17:05;22.11;38.56
33109;HTU21D;19481;51.118;6.940;2023-04-22T13:22:07;22.09;38.70
33109;HTU21D;19481;51.118;6.940;2023-04-22T13:27:09;22.32;38.18
33109;HTU21D;19481;51.118;6.940;2023-04-22T13:32:12;22.03;38.86
33109;HTU21D;19481;51.118;6.940;2023-04-22T13:37:14;21.91;39.31
33109;HTU21D;19481;51.118;6.940;2023-04-22T13:42:18;21.30;40.92
33109;HTU21D;19481;51.118;6.940;2023-04-22T13:47:21;20.68;42.26
33109;HTU21D;19481;51.118;6.940;2023-04-22T13:52:23;20.07;43.51
33109;HTU21D;19481;51.118;6.940;2023-04-22T13:57:24;19.43;44.85
33109;HTU21D;19481;51.118;6.940;2023-04-22T14:02:28;18.83;46.11
33109;HTU21D;19481;51.118;6.940;2023-04-22T14:07:29;18.59;47.41
33109;HTU21D;19481;51.118;6.940;2023-04-22T14:12:31;18.48;46.34
33109;HTU21D;19481;51.118;6.940;2023-04-22T14:17:34;18.42;46.61
33109;HTU21D;19481;51.118;6.940;2023-04-22T14:22:35;18.49;46.25
33109;HTU21D;19481;51.118;6.940;2023-04-22T14:27:37;18.49;46.26
33109;HTU21D;19481;51.118;6.940;2023-04-22T14:32:40;18.43;46.48
33109;HTU21D;19481;51.118;6.940;2023-04-22T14:37:42;18.42;46.64
33109;HTU21D;19481;51.118;6.940;2023-04-22T14:42:44;18.44;46.79
33109;HTU21D;19481;51.118;6.940;2023-04-22T14:47:47;18.51;46.86
33109;HTU21D;19481;51.118;6.940;2023-04-22T14:52:49;18.49;47.23
33109;HTU21D;19481;51.118;6.940;2023-04-22T14:57:53;18.50;47.89
33109;HTU21D;19481;51.118;6.940;2023-04-22T15:02:57;18.64;47.41
33109;HTU21D;19481;51.118;6.940;2023-04-22T15:07:59;18.59;47.60
33109;HTU21D;19481;51.118;6.940;2023-04-22T15:13:01;18.53;47.79
33109;HTU21D;19481;51.118;6.940;2023-04-22T15:18:04;18.43;48.67
33109;HTU21D;19481;51.118;6.940;2023-04-22T15:23:05;18.10;48.76
33109;HTU21D;19481;51.118;6.940;2023-04-22T15:28:07;17.94;49.04
33109;HTU21D;19481;51.118;6.940;2023-04-22T15:33:10;17.79;49.41
33109;HTU21D;19481;51.118;6.940;2023-04-22T15:38:12;17.46;50.17
33109;HTU21D;19481;51.118;6.940;2023-04-22T15:43:13;17.25;50.50
33109;HTU21D;19481;51.118;6.940;2023-04-22T15:48:16;17.17;50.65
33109;HTU21D;19481;51.118;6.940;2023-04-22T15:53:18;17.16;50.57
33109;HTU21D;19481;51.118;6.940;2023-04-22T15:58:19;17.15;50.79
33109;HTU21D;19481;51.118;6.940;2023-04-22T16:03:22;17.07;51.12
33109;HTU21D;19481;51.118;6.940;2023-04-22T16:08:24;16.94;51.41
33109;HTU21D;19481;51.118;6.940;2023-04-22T16:13:26;16.90;51.50
33109;HTU21D;19481;51.118;6.940;2023-04-22T16:18:29;16.89;51.77
33109;HTU21D;19481;51.118;6.940;2023-04-22T16:23:31;16.77;52.04
33109;HTU21D;19481;51.118;6.940;2023-04-22T16:28:32;16.67;52.53
33109;HTU21D;19481;51.118;6.940;2023-04-22T16:33:35;16.67;52.82
33109;HTU21D;19481;51.118;6.940;2023-04-22T16:38:37;16.58;53.42
33109;HTU21D;19481;51.118;6.940;2023-04-22T16:43:39;16.47;53.94
33109;HTU21D;19481;51.118;6.940;2023-04-22T16:48:42;16.32;54.61
33109;HTU21D;19481;51.118;6.940;2023-04-22T16:53:44;16.27;54.79
33109;HTU21D;19481;51.118;6.940;2023-04-22T16:58:46;16.13;55.42
33109;HTU21D;19481;51.118;6.940;2023-04-22T17:03:53;16.02;55.78
33109;HTU21D;19481;51.118;6.940;2023-04-22T17:08:54;16.03;55.74
33109;HTU21D;19481;51.118;6.940;2023-04-22T17:13:56;16.03;55.99
33109;HTU21D;19481;51.118;6.940;2023-04-22T17:19:00;15.92;56.56
33109;HTU21D;19481;51.118;6.940;2023-04-22T17:24:01;15.85;56.84
33109;HTU21D;19481;51.118;6.940;2023-04-22T17:29:05;15.86;56.86
33109;HTU21D;19481;51.118;6.940;2023-04-22T17:34:08;15.77;57.39
33109;HTU21D;19481;51.118;6.940;2023-04-22T17:39:10;15.78;57.39
33109;HTU21D;19481;51.118;6.940;2023-04-22T17:44:11;15.65;58.03
33109;HTU21D;19481;51.118;6.940;2023-04-22T17:49:14;15.60;57.93
33109;HTU21D;19481;51.118;6.940;2023-04-22T17:54:16;15.41;58.37
33109;HTU21D;19481;51.118;6.940;2023-04-22T17:59:18;15.36;58.39
33109;HTU21D;19481;51.118;6.940;2023-04-22T18:04:21;15.23;58.72
33109;HTU21D;19481;51.118;6.940;2023-04-22T18:09:23;15.23;58.54
33109;HTU21D;19481;51.118;6.940;2023-04-22T18:14:26;15.08;59.09
33109;HTU21D;19481;51.118;6.940;2023-04-22T18:19:29;15.04;59.14
33109;HTU21D;19481;51.118;6.940;2023-04-22T18:24:31;15.04;59.09
33109;HTU21D;19481;51.118;6.940;2023-04-22T18:29:32;15.02;59.35
33109;HTU21D;19481;51.118;6.940;2023-04-22T18:34:36;15.03;59.24
33109;HTU21D;19481;51.118;6.940;2023-04-22T18:39:37;15.11;59.12
33109;HTU21D;19481;51.118;6.940;2023-04-22T18:44:39;15.06;59.52
33109;HTU21D;19481;51.118;6.940;2023-04-22T18:49:42;15.02;59.71
33109;HTU21D;19481;51.118;6.940;2023-04-22T18:54:44;15.01;59.93
33109;HTU21D;19481;51.118;6.940;2023-04-22T18:59:46;15.00;60.18
33109;HTU21D;19481;51.118;6.940;2023-04-22T19:04:49;15.01;60.10
33109;HTU21D;19481;51.118;6.940;2023-04-22T19:09:52;15.03;60.24
33109;HTU21D;19481;51.118;6.940;2023-04-22T19:14:54;15.04;60.47
33109;HTU21D;19481;51.118;6.940;2023-04-22T19:20:00;15.04;60.47
33109;HTU21D;19481;51.118;6.940;2023-04-22T19:25:02;15.06;60.35
33109;HTU21D;19481;51.118;6.940;2023-04-22T19:30:06;15.09;60.38
33109;HTU21D;19481;51.118;6.940;2023-04-22T19:35:10;14.83;61.86
33109;HTU21D;19481;51.118;6.940;2023-04-22T19:40:15;14.67;61.70
33109;HTU21D;19481;51.118;6.940;2023-04-22T19:45:17;14.39;62.37
33109;HTU21D;19481;51.118;6.940;2023-04-22T19:50:21;14.26;63.23
33109;HTU21D;19481;51.118;6.940;2023-04-22T19:55:23;14.11;62.44
33109;HTU21D;19481;51.118;6.940;2023-04-22T20:00:26;14.00;62.63
33109;HTU21D;19481;51.118;6.940;2023-04-22T20:05:29;14.00;62.34
33109;HTU21D;19481;51.118;6.940;2023-04-22T20:10:31;13.92;62.47
33109;HTU21D;19481;51.118;6.940;2023-04-22T20:15:33;13.80;62.72
33109;HTU21D;19481;51.118;6.940;2023-04-22T20:20:37;13.71;63.70
33109;HTU21D;19481;51.118;6.940;2023-04-22T20:25:41;13.60;62.97
33109;HTU21D;19481;51.118;6.940;2023-04-22T20:30:44;13.52;63.01
33109;HTU21D;19481;51.118;6.940;2023-04-22T20:35:47;13.54;62.66
33109;HTU21D;19481;51.118;6.940;2023-04-22T20:40:50;13.47;62.71
33109;HTU21D;19481;51.118;6.940;2023-04-22T20:45:52;13.37;62.98
33109;HTU21D;19481;51.118;6.940;2023-04-22T20:50:55;13.29;62.88
33109;HTU21D;19481;51.118;6.940;2023-04-22T20:55:57;13.24;62.80
33109;HTU21D;19481;51.118;6.940;2023-04-22T21:00:58;13.20;62.84
33109;HTU21D;19481;51.118;6.940;2023-04-22T21:06:02;13.14;62.92
33109;HTU21D;19481;51.118;6.940;2023-04-22T21:11:04;13.15;62.79
33109;HTU21D;19481;51.118;6.940;2023-04-22T21:16:07;13.10;62.81
33109;HTU21D;19481;51.118;6.940;2023-04-22T21:21:10;13.09;62.70
33109;HTU21D;19481;51.118;6.940;2023-04-22T21:26:16;13.01;63.17
33109;HTU21D;19481;51.118;6.940;2023-04-22T21:31:18;12.88;63.27
33109;HTU21D;19481;51.118;6.940;2023-04-22T21:36:21;12.82;63.19
33109;HTU21D;19481;51.118;6.940;2023-04-22T21:41:24;12.72;63.08
33109;HTU21D;19481;51.118;6.940;2023-04-22T21:46:25;12.70;62.92
33109;HTU21D;19481;51.118;6.940;2023-04-22T21:51:29;12.65;62.73
33109;HTU21D;19481;51.118;6.940;2023-04-22T21:56:31;12.61;62.81
33109;HTU21D;19481;51.118;6.940;2023-04-22T22:01:33;12.57;62.98
33109;HTU21D;19481;51.118;6.940;2023-04-22T22:06:36;12.57;62.75
33109;HTU21D;19481;51.118;6.940;2023-04-22T22:11:38;12.49;62.98
33109;HTU21D;19481;51.118;6.940;2023-04-22T22:16:40;12.42;63.22
33109;HTU21D;19481;51.118;6.940;2023-04-22T22:21:44;12.36;63.24
33109;HTU21D;19481;51.118;6.940;2023-04-22T22:26:45;12.27;63.56
33109;HTU21D;19481;51.118;6.940;2023-04-22T22:31:47;12.26;63.45
33109;HTU21D;19481;51.118;6.940;2023-04-22T22:36:50;12.19;63.52
33109;HTU21D;19481;51.118;6.940;2023-04-22T22:41:52;12.08;63.80
33109;HTU21D;19481;51.118;6.940;2023-04-22T22:46:55;12.03;63.84
33109;HTU21D;19481;51.118;6.940;2023-04-22T22:51:58;11.98;63.77
33109;HTU21D;19481;51.118;6.940;2023-04-22T22:57:00;11.93;63.79
33109;HTU21D;19481;51.118;6.940;2023-04-22T23:02:04;11.90;63.76
33109;HTU21D;19481;51.118;6.940;2023-04-22T23:07:07;11.88;63.65
33109;HTU21D;19481;51.118;6.940;2023-04-22T23:12:09;11.83;63.93
33109;HTU21D;19481;51.118;6.940;2023-04-22T23:17:11;11.81;63.91
33109;HTU21D;19481;51.118;6.940;2023-04-22T23:22:14;11.75;63.97
33109;HTU21D;19481;51.118;6.940;2023-04-22T23:27:16;11.71;64.17
33109;HTU21D;19481;51.118;6.940;2023-04-22T23:32:18;11.64;64.39
33109;HTU21D;19481;51.118;6.940;2023-04-22T23:37:24;11.67;64.27
33109;HTU21D;19481;51.118;6.940;2023-04-22T23:42:28;11.57;64.72
33109;HTU21D;19481;51.118;6.940;2023-04-22T23:47:29;11.57;64.65
33109;HTU21D;19481;51.118;6.940;2023-04-22T23:52:32;11.59;64.43
33109;HTU21D;19481;51.118;6.940;2023-04-22T23:57:40;11.59;64.57
